Time;durP1;ratioP1;P1;durP2;ratioP2;P2;SDS_P1;SDS_P2;PMS_P1;PMS_P2;Temp;Humidity;BMP_temperature;BMP_pressure;BME280_temperature;BME280_humidity;BME280_pressure;Samples;Min_cycle;Max_cycle;Signal;HPM_P1;HPM_P2
2023/06/15 00:01:24;;;;;;;4.03;2.53;;;20.00;62.90;;;;;;4999693;28;20036;-85
2023/06/15 00:03:49;;;;;;;3.40;2.20;;;19.90;63.00;;;;;;5014756;28;20026;-85
2023/06/15 00:06:15;;;;;;;4.18;2.63;;;20.00;63.50;;;;;;4998911;28;20026;-85
2023/06/15 00:08:40;;;;;;;5.53;2.30;;;19.90;63.90;;;;;;4994956;28;20022;-85
2023/06/15 00:11:06;;;;;;;3.30;2.30;;;19.90;63.80;;;;;;4972973;28;20077;-84
2023/06/15 00:13:31;;;;;;;2.83;2.28;;;19.90;63.70;;;;;;4974795;28;20026;-85
2023/06/15 00:15:57;;;;;;;3.22;2.60;;;19.80;64.10;;;;;;4975509;28;20031;-85
2023/06/15 00:18:23;;;;;;;4.13;2.70;;;19.70;64.70;;;;;;4974297;28;20033;-85
2023/06/15 00:20:48;;;;;;;4.40;2.45;;;19.60;64.90;;;;;;4974860;28;20487;-85
2023/06/15 00:23:17;;;;;;;5.63;2.55;;;19.50;65.20;;;;;;4973963;28;20027;-85
2023/06/15 00:25:43;;;;;;;2.97;2.35;;;19.50;65.50;;;;;;4974551;28;20034;-84
2023/06/15 00:28:08;;;;;;;3.45;2.50;;;19.50;65.10;;;;;;4973780;28;20031;-83
2023/06/15 00:30:34;;;;;;;5.07;2.47;;;19.40;65.30;;;;;;4974661;28;20115;-83
2023/06/15 00:32:59;;;;;;;4.07;2.10;;;19.40;65.50;;;;;;4977363;28;20038;-83
2023/06/15 00:35:25;;;;;;;4.32;2.03;;;19.40;65.80;;;;;;4976652;28;20037;-83
2023/06/15 00:37:51;;;;;;;3.78;2.35;;;19.40;65.60;;;;;;4978004;28;20027;-85
2023/06/15 00:40:16;;;;;;;3.28;2.25;;;19.30;65.90;;;;;;4977741;28;20027;-85
2023/06/15 00:42:44;;;;;;;3.10;2.30;;;19.40;66.40;;;;;;4976283;28;20388;-85
2023/06/15 00:45:10;;;;;;;2.70;2.10;;;19.30;66.10;;;;;;4976460;28;20474;-85
2023/06/15 00:47:39;;;;;;;2.30;2.00;;;19.30;66.30;;;;;;4975169;28;20121;-86
2023/06/15 00:50:09;;;;;;;3.38;2.40;;;19.30;66.90;;;;;;4973929;28;20039;-85
2023/06/15 00:52:35;;;;;;;3.28;2.20;;;19.20;66.40;;;;;;4971094;28;20039;-86
2023/06/15 00:55:03;;;;;;;4.65;2.38;;;19.20;66.80;;;;;;4971172;28;20086;-87
2023/06/15 00:57:30;;;;;;;3.67;2.42;;;19.10;66.80;;;;;;4971010;28;20027;-89
2023/06/15 00:59:56;;;;;;;2.85;2.35;;;19.10;66.80;;;;;;4971473;28;20023;-88
2023/06/15 01:02:24;;;;;;;2.88;2.53;;;19.00;67.00;;;;;;4972713;28;20056;-88
2023/06/15 01:04:50;;;;;;;3.72;2.17;;;19.00;66.90;;;;;;4974616;28;20074;-87
2023/06/15 01:07:16;;;;;;;3.30;2.45;;;19.10;66.80;;;;;;4962871;29;20039;-87
2023/06/15 01:09:43;;;;;;;3.22;2.30;;;19.10;66.90;;;;;;4978373;28;20055;-87
2023/06/15 01:12:14;;;;;;;4.95;2.20;;;19.00;67.30;;;;;;4962810;29;20047;-87
2023/06/15 01:14:40;;;;;;;2.97;2.22;;;19.00;66.90;;;;;;4977894;28;20023;-86
2023/06/15 01:17:15;;;;;;;5.22;2.20;;;19.00;66.60;;;;;;4978434;28;20142;-84
2023/06/15 01:19:57;;;;;;;3.60;2.70;;;19.00;66.50;;;;;;4978313;28;20030;-86
2023/06/15 01:22:49;;;;;;;3.92;2.67;;;19.00;66.60;;;;;;4977629;28;20102;-86
2023/06/15 01:25:35;;;;;;;4.53;2.50;;;19.10;66.40;;;;;;4961682;28;20030;-86
2023/06/15 01:28:02;;;;;;;4.68;2.60;;;19.10;66.20;;;;;;4977114;28;20547;-87
2023/06/15 01:30:37;;;;;;;3.35;2.30;;;19.10;66.50;;;;;;4981421;28;20120;-87
2023/06/15 01:33:02;;;;;;;6.95;2.58;;;19.10;66.70;;;;;;4977550;28;20039;-87
2023/06/15 01:35:28;;;;;;;6.47;2.70;;;19.10;66.90;;;;;;4967453;28;20027;-85
2023/06/15 01:37:54;;;;;;;3.72;2.40;;;19.00;67.30;;;;;;4967026;28;20372;-85
2023/06/15 01:40:19;;;;;;;4.65;2.13;;;19.00;67.60;;;;;;4958773;29;20027;-85
2023/06/15 01:42:47;;;;;;;3.30;2.80;;;19.00;67.80;;;;;;4970393;28;20472;-84
2023/06/15 01:45:14;;;;;;;3.05;2.30;;;18.90;68.10;;;;;;4959734;29;20106;-84
2023/06/15 01:47:40;;;;;;;5.18;2.53;;;18.90;68.40;;;;;;4961699;29;20034;-84
2023/06/15 01:50:09;;;;;;;4.25;2.15;;;18.80;68.20;;;;;;4961326;29;20053;-84
2023/06/15 01:52:35;;;;;;;4.18;2.47;;;18.90;67.90;;;;;;4972561;28;20055;-85
2023/06/15 01:55:00;;;;;;;3.13;2.45;;;18.90;67.90;;;;;;4964857;29;20023;-85
2023/06/15 01:57:26;;;;;;;3.65;2.60;;;18.90;68.20;;;;;;4962100;29;20275;-85
2023/06/15 01:59:54;;;;;;;3.80;2.50;;;18.80;68.50;;;;;;4963143;29;20030;-85
2023/06/15 02:02:20;;;;;;;2.75;2.20;;;18.80;68.60;;;;;;4963985;28;20048;-85
2023/06/15 02:04:46;;;;;;;3.85;2.60;;;18.90;68.70;;;;;;4978906;28;20464;-84
2023/06/15 02:07:11;;;;;;;4.68;2.40;;;18.80;68.60;;;;;;4962966;29;20031;-84
2023/06/15 02:09:37;;;;;;;4.60;2.08;;;18.80;68.60;;;;;;4968339;28;20480;-84
2023/06/15 02:12:03;;;;;;;5.18;2.30;;;18.80;68.80;;;;;;4984391;28;20092;-85
2023/06/15 02:14:28;;;;;;;4.65;2.40;;;18.80;68.40;;;;;;4984358;28;20462;-85
2023/06/15 02:16:56;;;;;;;3.92;2.50;;;18.80;68.50;;;;;;4996671;28;20026;-85
2023/06/15 02:19:22;;;;;;;3.55;2.28;;;18.80;68.80;;;;;;4979237;28;20533;-85
2023/06/15 02:21:49;;;;;;;4.15;2.45;;;18.70;68.80;;;;;;4994783;28;20042;-85
2023/06/15 02:24:16;;;;;;;2.40;2.20;;;18.80;68.90;;;;;;4976075;28;20114;-85
2023/06/15 02:26:42;;;;;;;3.03;2.60;;;18.70;68.50;;;;;;4960533;28;20104;-85
2023/06/15 02:29:08;;;;;;;2.47;2.08;;;18.70;68.60;;;;;;4977323;28;20077;-85
2023/06/15 02:31:35;;;;;;;4.85;2.50;;;18.60;68.90;;;;;;4959531;28;20072;-85
2023/06/15 02:34:00;;;;;;;4.10;2.17;;;18.60;69.00;;;;;;4977479;28;20031;-85
2023/06/15 02:36:26;;;;;;;3.72;2.28;;;18.50;68.60;;;;;;4959522;28;20546;-85
2023/06/15 02:38:52;;;;;;;2.58;2.08;;;18.50;69.10;;;;;;4977284;28;20035;-85
2023/06/15 02:41:17;;;;;;;3.97;2.33;;;18.50;69.10;;;;;;4959737;28;20046;-84
2023/06/15 02:43:43;;;;;;;2.97;2.40;;;18.50;69.10;;;;;;4976450;28;20031;-88
2023/06/15 02:46:08;;;;;;;2.80;2.22;;;18.50;69.40;;;;;;4960076;28;20050;-88
2023/06/15 02:48:34;;;;;;;3.25;2.58;;;18.40;69.70;;;;;;4976854;28;20147;-88
2023/06/15 02:51:00;;;;;;;2.35;2.15;;;18.40;69.50;;;;;;4960183;28;20029;-87
2023/06/15 02:53:25;;;;;;;7.43;2.53;;;18.40;69.60;;;;;;4959727;28;20026;-88
2023/06/15 02:55:51;;;;;;;3.53;2.50;;;18.40;70.00;;;;;;4960113;28;20557;-88
2023/06/15 02:58:20;;;;;;;3.45;2.75;;;18.30;70.10;;;;;;4976870;28;20475;-86
2023/06/15 03:00:50;;;;;;;4.55;2.40;;;18.30;70.20;;;;;;4960397;28;20029;-86
2023/06/15 03:03:22;;;;;;;3.45;2.22;;;18.20;70.10;;;;;;4963142;28;20495;-85
2023/06/15 03:05:49;;;;;;;4.00;2.38;;;18.20;70.70;;;;;;4962842;28;20039;-86
2023/06/15 03:08:15;;;;;;;3.30;2.30;;;18.30;69.50;;;;;;4962244;28;20031;-85
2023/06/15 03:10:41;;;;;;;4.15;2.30;;;18.30;69.40;;;;;;4962001;28;20054;-86
2023/06/15 03:13:06;;;;;;;3.05;2.17;;;18.30;69.50;;;;;;4962639;28;20043;-86
2023/06/15 03:15:32;;;;;;;4.50;2.50;;;18.30;69.40;;;;;;4960072;28;20058;-87
2023/06/15 03:17:57;;;;;;;4.65;2.70;;;18.20;69.50;;;;;;4976914;28;20046;-86
2023/06/15 03:20:24;;;;;;;4.75;2.03;;;18.20;69.80;;;;;;4959593;28;20094;-86
2023/06/15 03:22:50;;;;;;;3.60;2.33;;;18.10;69.70;;;;;;4962290;28;20030;-86
2023/06/15 03:25:16;;;;;;;3.42;2.17;;;18.10;69.70;;;;;;4960718;28;20038;-84
2023/06/15 03:27:42;;;;;;;3.15;2.05;;;18.10;69.90;;;;;;4960121;28;20023;-86
2023/06/15 03:30:10;;;;;;;3.28;2.40;;;18.00;70.10;;;;;;4962530;28;20061;-83
2023/06/15 03:32:37;;;;;;;4.55;2.55;;;18.00;70.20;;;;;;4987613;28;20422;-86
2023/06/15 03:35:03;;;;;;;5.32;2.10;;;17.90;70.30;;;;;;4974868;28;20030;-85
2023/06/15 03:37:29;;;;;;;4.75;2.45;;;17.90;70.60;;;;;;4987979;28;20049;-81
2023/06/15 03:39:55;;;;;;;4.85;2.45;;;18.00;70.70;;;;;;4990174;28;20125;-84
2023/06/15 03:42:20;;;;;;;6.22;2.38;;;17.90;70.70;;;;;;4982654;28;20486;-81
2023/06/15 03:44:46;;;;;;;3.72;2.38;;;17.90;71.00;;;;;;4995624;28;20030;-84
2023/06/15 03:47:12;;;;;;;4.10;2.13;;;17.90;71.00;;;;;;4978157;28;20026;-84
2023/06/15 03:49:37;;;;;;;2.42;1.98;;;18.00;71.00;;;;;;4977703;28;20125;-84
2023/06/15 03:52:03;;;;;;;3.10;2.35;;;17.90;71.40;;;;;;4977616;28;20034;-84
2023/06/15 03:54:29;;;;;;;3.42;2.20;;;17.90;71.50;;;;;;4977438;28;20030;-84
2023/06/15 03:56:55;;;;;;;4.18;2.58;;;17.90;71.70;;;;;;4995254;28;20030;-84
2023/06/15 03:59:20;;;;;;;2.78;2.20;;;17.90;72.00;;;;;;4977517;28;20438;-84
2023/06/15 04:01:46;;;;;;;3.40;2.40;;;17.90;72.20;;;;;;4977908;28;20033;-86
2023/06/15 04:04:14;;;;;;;3.55;2.40;;;17.90;72.20;;;;;;4995379;28;20027;-85
2023/06/15 04:06:45;;;;;;;2.60;2.20;;;18.00;72.30;;;;;;4978263;28;20057;-85
2023/06/15 04:09:12;;;;;;;6.05;2.35;;;18.00;72.70;;;;;;4977951;28;20126;-85
2023/06/15 04:11:37;;;;;;;3.88;2.30;;;18.10;72.40;;;;;;4994592;28;20038;-84
2023/06/15 04:14:03;;;;;;;3.22;2.40;;;18.10;72.40;;;;;;4994878;28;20080;-85
2023/06/15 04:16:28;;;;;;;7.40;2.65;;;18.10;72.60;;;;;;4977259;28;20029;-85
2023/06/15 04:18:54;;;;;;;3.03;2.05;;;18.00;72.80;;;;;;4994702;28;20027;-85
2023/06/15 04:21:20;;;;;;;4.80;2.45;;;18.00;72.90;;;;;;4994113;28;20030;-84
2023/06/15 04:23:45;;;;;;;6.43;2.65;;;18.00;72.80;;;;;;4994825;28;20034;-85
2023/06/15 04:26:11;;;;;;;3.00;2.05;;;18.10;72.70;;;;;;4977945;28;20037;-85
2023/06/15 04:28:36;;;;;;;2.42;2.20;;;18.10;72.50;;;;;;4977265;28;20085;-85
2023/06/15 04:31:08;;;;;;;4.22;2.30;;;18.10;72.60;;;;;;4977768;28;20026;-85
2023/06/15 04:33:33;;;;;;;;;;;18.20;72.60;;;;;;4977854;28;20118;-83
2023/06/15 04:36:01;;;;;;;4.32;2.08;;;18.20;72.70;;;;;;4995080;28;19944;-86
2023/06/15 04:38:26;;;;;;;3.03;2.25;;;18.20;72.70;;;;;;4977937;28;20125;-84
2023/06/15 04:40:52;;;;;;;3.65;2.33;;;18.20;72.80;;;;;;4977741;28;20058;-85
2023/06/15 04:43:18;;;;;;;3.28;2.10;;;18.10;73.10;;;;;;4995046;28;20045;-81
2023/06/15 04:45:44;;;;;;;3.78;2.00;;;18.10;73.50;;;;;;4977882;28;20032;-84
2023/06/15 04:48:11;;;;;;;3.95;2.92;;;18.10;73.70;;;;;;4994906;28;20053;-84
2023/06/15 04:50:37;;;;;;;2.70;2.20;;;18.00;74.50;;;;;;4976756;28;20089;-83
2023/06/15 04:53:02;;;;;;;5.20;2.55;;;18.00;73.80;;;;;;4977420;28;20034;-83
2023/06/15 04:55:28;;;;;;;3.28;2.13;;;18.00;73.90;;;;;;4977111;28;20026;-83
2023/06/15 04:57:53;;;;;;;3.17;2.20;;;18.00;74.10;;;;;;4994504;28;20026;-83
2023/06/15 05:00:20;;;;;;;3.05;2.35;;;18.00;74.20;;;;;;4977355;28;20113;-82
2023/06/15 05:02:45;;;;;;;4.50;2.63;;;17.90;74.10;;;;;;4977550;28;20031;-84
2023/06/15 05:05:12;;;;;;;3.00;2.42;;;18.00;75.00;;;;;;4977512;28;20027;-83
2023/06/15 05:07:37;;;;;;;3.03;2.60;;;18.00;74.50;;;;;;4977019;28;20041;-85
2023/06/15 05:10:03;;;;;;;2.70;2.13;;;18.00;74.60;;;;;;4994737;28;20054;-85
2023/06/15 05:12:29;;;;;;;3.15;2.40;;;17.90;74.70;;;;;;4977054;28;20538;-84
2023/06/15 05:14:55;;;;;;;3.35;2.47;;;18.00;75.10;;;;;;4994797;28;20091;-85
2023/06/15 05:17:20;;;;;;;3.53;2.58;;;18.00;75.10;;;;;;4994226;28;20113;-83
2023/06/15 05:19:46;;;;;;;4.05;2.38;;;18.00;75.20;;;;;;4994258;28;20452;-84
2023/06/15 05:22:11;;;;;;;3.95;2.53;;;18.00;75.00;;;;;;4976843;28;20049;-85
2023/06/15 05:24:37;;;;;;;4.90;2.20;;;18.10;75.00;;;;;;4994081;28;20026;-84
2023/06/15 05:27:03;;;;;;;3.30;2.45;;;18.10;74.80;;;;;;4977538;28;20022;-84
2023/06/15 05:29:28;;;;;;;3.80;2.53;;;18.20;74.80;;;;;;4994045;28;20113;-86
2023/06/15 05:31:59;;;;;;;2.78;2.40;;;18.20;74.60;;;;;;4979626;28;20039;-84
2023/06/15 05:34:25;;;;;;;6.05;2.72;;;18.20;74.70;;;;;;4957207;28;20022;-83
2023/06/15 05:36:51;;;;;;;3.38;2.53;;;18.20;74.70;;;;;;4963838;28;20038;-80
2023/06/15 05:39:17;;;;;;;6.10;2.90;;;18.20;74.70;;;;;;4976626;28;20384;-83
2023/06/15 05:41:42;;;;;;;3.22;2.30;;;18.20;74.80;;;;;;4978297;28;20375;-84
2023/06/15 05:44:08;;;;;;;4.18;2.70;;;18.30;74.60;;;;;;4991882;28;20113;-84
2023/06/15 05:46:33;;;;;;;2.90;2.33;;;18.40;74.50;;;;;;4986192;28;20029;-85
2023/06/15 05:48:59;;;;;;;4.05;2.63;;;18.40;74.70;;;;;;4979646;28;20037;-84
2023/06/15 05:51:25;;;;;;;7.18;2.45;;;18.40;74.60;;;;;;4976708;28;20046;-85
2023/06/15 05:53:50;;;;;;;3.72;2.35;;;18.40;74.50;;;;;;4980569;28;20026;-86
2023/06/15 05:56:16;;;;;;;5.75;2.40;;;18.40;74.50;;;;;;4985885;28;20026;-87
2023/06/15 05:58:43;;;;;;;4.65;2.75;;;18.50;74.80;;;;;;4980913;28;20177;-87
2023/06/15 06:01:08;;;;;;;3.85;2.38;;;18.50;74.50;;;;;;4993616;28;20045;-87
2023/06/15 06:03:35;;;;;;;4.45;2.72;;;18.50;74.30;;;;;;4979667;28;20026;-84
2023/06/15 06:06:01;;;;;;;2.95;2.28;;;18.60;75.00;;;;;;4979313;28;20026;-84
2023/06/15 06:08:27;;;;;;;3.58;2.30;;;18.60;74.70;;;;;;4979343;28;20053;-83
2023/06/15 06:10:52;;;;;;;5.07;2.58;;;18.60;74.60;;;;;;4979355;28;20049;-86
2023/06/15 06:13:19;;;;;;;6.22;2.25;;;18.70;73.80;;;;;;4965154;28;20141;-86
2023/06/15 06:15:45;;;;;;;4.50;2.40;;;18.70;73.40;;;;;;4979467;28;20069;-84
2023/06/15 06:18:10;;;;;;;4.63;2.40;;;18.70;73.40;;;;;;4979576;28;20022;-85
2023/06/15 06:20:36;;;;;;;2.97;2.10;;;18.80;73.30;;;;;;4979603;28;20030;-86
2023/06/15 06:23:03;;;;;;;4.07;2.30;;;18.80;72.90;;;;;;4980013;28;20125;-85
2023/06/15 06:25:29;;;;;;;3.50;2.20;;;18.80;73.20;;;;;;4979528;28;20054;-86
2023/06/15 06:27:54;;;;;;;3.55;2.13;;;18.90;72.90;;;;;;4981297;28;20031;-85
2023/06/15 06:30:20;;;;;;;3.55;2.42;;;18.90;72.20;;;;;;4980070;28;20034;-84
2023/06/15 06:32:46;;;;;;;7.40;2.63;;;18.90;72.40;;;;;;4978318;28;20026;-85
2023/06/15 06:35:12;;;;;;;6.60;2.50;;;18.90;73.30;;;;;;4996394;28;20031;-85
2023/06/15 06:37:37;;;;;;;3.75;2.20;;;19.00;72.60;;;;;;4992903;28;20406;-85
2023/06/15 06:40:03;;;;;;;3.13;2.33;;;19.00;72.80;;;;;;4979003;28;20023;-84
2023/06/15 06:42:29;;;;;;;3.17;2.28;;;19.00;72.30;;;;;;4978610;28;20042;-84
2023/06/15 06:44:56;;;;;;;4.53;2.50;;;19.10;72.00;;;;;;4979065;28;20026;-85
2023/06/15 06:47:21;;;;;;;3.13;2.03;;;19.10;72.00;;;;;;4979325;28;20034;-84
2023/06/15 06:49:47;;;;;;;3.60;2.35;;;19.20;71.50;;;;;;4979005;28;20022;-79
2023/06/15 06:52:13;;;;;;;3.13;2.13;;;19.20;72.30;;;;;;4995233;28;20034;-80
2023/06/15 06:54:38;;;;;;;4.15;2.38;;;19.20;72.00;;;;;;4995387;28;20037;-81
2023/06/15 06:57:04;;;;;;;2.92;2.42;;;19.30;72.00;;;;;;4990961;28;20085;-79
2023/06/15 06:59:30;;;;;;;2.72;2.15;;;19.30;71.50;;;;;;4977998;28;20062;-82
2023/06/15 07:01:56;;;;;;;3.20;2.20;;;19.40;71.40;;;;;;4981385;28;20036;-81
2023/06/15 07:04:21;;;;;;;4.20;2.75;;;19.40;71.40;;;;;;4985918;28;20490;-79
2023/06/15 07:06:47;;;;;;;5.47;2.50;;;19.50;71.70;;;;;;4983930;28;20026;-82
2023/06/15 07:09:13;;;;;;;3.40;2.53;;;19.50;71.90;;;;;;4979933;28;20060;-81
2023/06/15 07:11:38;;;;;;;4.22;2.10;;;19.60;71.70;;;;;;4994452;28;20030;-80
2023/06/15 07:14:04;;;;;;;2.53;2.10;;;19.60;71.60;;;;;;4995029;28;20023;-80
2023/06/15 07:16:30;;;;;;;4.07;2.10;;;19.60;71.70;;;;;;4992841;28;20033;-80
2023/06/15 07:18:56;;;;;;;3.08;2.35;;;19.60;71.40;;;;;;4977738;28;20037;-80
2023/06/15 07:21:22;;;;;;;5.53;2.22;;;19.70;71.50;;;;;;4994855;28;20026;-78
2023/06/15 07:23:48;;;;;;;3.63;2.20;;;19.70;71.60;;;;;;4995236;28;20037;-82
2023/06/15 07:26:13;;;;;;;6.10;2.42;;;19.80;71.30;;;;;;4988047;28;20034;-83
2023/06/15 07:28:39;;;;;;;7.80;2.50;;;19.80;71.40;;;;;;4987993;28;20045;-81
2023/06/15 07:31:05;;;;;;;6.90;3.28;;;19.90;70.90;;;;;;4991650;28;20050;-82
2023/06/15 07:33:30;;;;;;;5.13;2.55;;;19.90;71.20;;;;;;4988812;28;20117;-83
2023/06/15 07:35:56;;;;;;;4.40;2.90;;;19.90;70.80;;;;;;4981141;28;20030;-83
2023/06/15 07:38:22;;;;;;;4.10;2.28;;;19.90;71.10;;;;;;4976608;28;20068;-81
2023/06/15 07:40:47;;;;;;;3.28;2.20;;;20.00;71.20;;;;;;4995009;28;20026;-83
2023/06/15 07:43:13;;;;;;;4.32;2.58;;;20.00;71.00;;;;;;4992502;28;20022;-84
2023/06/15 07:45:39;;;;;;;5.03;2.88;;;20.10;70.70;;;;;;4978234;28;20112;-82
2023/06/15 07:48:04;;;;;;;4.20;2.72;;;20.10;70.80;;;;;;4988285;28;20479;-83
2023/06/15 07:50:30;;;;;;;4.80;2.50;;;20.10;70.90;;;;;;4994104;28;20042;-82
2023/06/15 07:52:56;;;;;;;3.78;2.60;;;20.20;70.80;;;;;;4981956;28;20067;-84
2023/06/15 07:55:22;;;;;;;3.40;2.63;;;20.20;70.70;;;;;;4994267;28;20088;-80
2023/06/15 07:57:47;;;;;;;5.00;2.67;;;20.30;70.30;;;;;;4994906;28;20467;-84
2023/06/15 08:00:13;;;;;;;5.20;2.45;;;20.30;70.40;;;;;;4983471;28;20026;-84
2023/06/15 08:02:39;;;;;;;2.97;2.40;;;20.30;70.40;;;;;;4983636;28;20041;-83
2023/06/15 08:05:05;;;;;;;3.67;2.65;;;20.40;70.30;;;;;;4990711;28;20026;-89
2023/06/15 08:07:31;;;;;;;4.22;2.30;;;20.40;70.00;;;;;;4994110;28;20058;-80
2023/06/15 08:09:56;;;;;;;3.72;2.70;;;20.50;70.00;;;;;;4985987;28;20132;-85
2023/06/15 08:12:22;;;;;;;6.70;3.03;;;20.50;69.40;;;;;;4994576;28;20056;-82
2023/06/15 08:14:47;;;;;;;6.43;2.60;;;20.50;69.30;;;;;;4989794;28;20240;-82
2023/06/15 08:17:13;;;;;;;4.72;2.70;;;20.60;69.20;;;;;;4993096;28;20052;-85
2023/06/15 08:19:39;;;;;;;4.43;2.60;;;20.60;69.00;;;;;;4993844;28;20427;-85
2023/06/15 08:22:05;;;;;;;6.00;2.60;;;20.60;68.80;;;;;;4984600;28;20075;-85
2023/06/15 08:24:31;;;;;;;6.53;2.60;;;20.60;68.90;;;;;;4976087;28;20061;-85
2023/06/15 08:26:56;;;;;;;4.40;2.67;;;20.70;68.50;;;;;;4991872;28;20022;-88
2023/06/15 08:29:22;;;;;;;5.88;2.10;;;20.70;68.40;;;;;;4995858;28;20061;-81
2023/06/15 08:31:48;;;;;;;3.55;2.40;;;20.80;68.30;;;;;;4979881;28;20023;-84
2023/06/15 08:34:13;;;;;;;3.00;2.60;;;20.80;68.20;;;;;;4994460;28;20620;-85
2023/06/15 08:36:39;;;;;;;3.58;2.85;;;20.90;68.60;;;;;;4993509;28;20444;-85
2023/06/15 08:39:05;;;;;;;3.33;2.55;;;20.90;68.20;;;;;;4979471;28;20049;-85
2023/06/15 08:41:32;;;;;;;3.22;2.58;;;21.00;68.20;;;;;;4992744;28;20034;-82
2023/06/15 08:43:59;;;;;;;2.97;2.42;;;21.00;68.90;;;;;;4993328;28;20490;-81
2023/06/15 08:46:25;;;;;;;4.82;2.97;;;21.10;69.00;;;;;;4988446;28;20041;-81
2023/06/15 08:48:52;;;;;;;4.63;2.55;;;21.10;68.50;;;;;;4990209;28;20113;-80
2023/06/15 08:51:19;;;;;;;3.85;2.78;;;21.20;68.30;;;;;;4990668;28;20045;-81
2023/06/15 08:53:46;;;;;;;3.65;2.60;;;21.20;68.30;;;;;;4992480;28;20054;-79
2023/06/15 08:56:12;;;;;;;3.50;2.63;;;21.20;68.20;;;;;;4975532;28;20471;-84
2023/06/15 08:58:39;;;;;;;6.28;2.75;;;21.20;67.90;;;;;;4991935;28;20030;-83
2023/06/15 09:01:06;;;;;;;3.22;2.38;;;21.30;68.30;;;;;;4975391;28;20032;-84
2023/06/15 09:03:34;;;;;;;4.80;2.90;;;21.30;67.60;;;;;;4978748;28;20023;-83
2023/06/15 09:06:00;;;;;;;2.95;2.65;;;21.40;67.50;;;;;;4977142;28;20030;-80
2023/06/15 09:08:25;;;;;;;6.00;2.97;;;21.50;67.00;;;;;;4978347;28;20454;-79
2023/06/15 09:11:04;;;;;;;3.78;2.75;;;21.40;67.10;;;;;;4993224;28;20046;-79
2023/06/15 09:13:32;;;;;;;5.38;2.50;;;21.50;66.80;;;;;;4969494;28;20073;-80
2023/06/15 09:16:01;;;;;;;3.88;2.78;;;21.50;65.60;;;;;;4992781;28;20046;-85
2023/06/15 09:18:27;;;;;;;4.38;3.00;;;21.60;65.00;;;;;;4989294;28;20068;-80
2023/06/15 09:20:59;;;;;;;5.05;2.53;;;21.60;64.90;;;;;;4975565;28;20050;-80
2023/06/15 09:23:25;;;;;;;3.22;2.40;;;21.70;65.00;;;;;;4976260;28;20435;-79
2023/06/15 09:25:52;;;;;;;3.38;2.67;;;21.80;65.10;;;;;;4979269;28;20528;-81
2023/06/15 09:28:21;;;;;;;5.72;2.55;;;21.90;64.80;;;;;;4977980;28;20109;-83
2023/06/15 09:30:59;;;;;;;3.05;2.30;;;21.90;64.20;;;;;;4973162;28;20375;-80
2023/06/15 09:33:26;;;;;;;4.53;2.75;;;22.00;64.60;;;;;;4995860;28;20031;-79
2023/06/15 09:36:03;;;;;;;3.55;2.70;;;22.00;63.60;;;;;;4994740;28;20058;-84
2023/06/15 09:38:42;;;;;;;6.35;2.40;;;22.00;63.20;;;;;;4977726;28;20046;-81
2023/06/15 09:41:08;;;;;;;5.80;2.70;;;22.00;63.50;;;;;;4991815;28;20113;-81
2023/06/15 09:43:39;;;;;;;4.05;2.67;;;22.10;64.50;;;;;;4995294;28;20027;-82
2023/06/15 09:46:13;;;;;;;4.18;2.60;;;22.20;63.70;;;;;;4976627;28;20387;-83
2023/06/15 09:48:40;;;;;;;3.17;2.58;;;22.30;63.10;;;;;;4976460;28;20026;-83
2023/06/15 09:51:06;;;;;;;2.60;2.40;;;22.30;62.50;;;;;;4981743;28;20057;-81
2023/06/15 09:53:32;;;;;;;3.03;2.47;;;22.30;62.30;;;;;;4980138;28;20157;-80
2023/06/15 09:55:59;;;;;;;3.80;2.30;;;22.40;62.30;;;;;;4996418;28;20117;-82
2023/06/15 09:58:25;;;;;;;3.88;2.50;;;22.40;60.80;;;;;;4996184;28;20025;-79
2023/06/15 10:00:57;;;;;;;2.67;2.25;;;22.40;60.60;;;;;;4980839;28;20030;-80
2023/06/15 10:03:24;;;;;;;4.93;2.42;;;22.50;60.50;;;;;;4987320;28;20034;-80
2023/06/15 10:05:54;;;;;;;6.35;4.13;;;22.50;61.10;;;;;;4983286;28;20031;-80
2023/06/15 10:08:27;;;;;;;3.53;2.40;;;22.60;59.80;;;;;;4977740;28;20183;-80
2023/06/15 10:10:56;;;;;;;6.18;2.95;;;22.60;58.70;;;;;;4977348;28;20050;-80
2023/06/15 10:13:49;;;;;;;4.30;2.50;;;22.70;58.80;;;;;;4979898;28;20092;-79
2023/06/15 10:16:16;;;;;;;2.47;1.95;;;22.70;58.70;;;;;;4976846;28;20116;-81
2023/06/15 10:18:44;;;;;;;2.72;2.00;;;22.80;58.80;;;;;;4994980;28;20030;-82
2023/06/15 10:21:14;;;;;;;2.40;2.20;;;22.90;58.80;;;;;;4993607;28;20112;-83
2023/06/15 10:23:41;;;;;;;3.38;2.10;;;22.90;58.00;;;;;;4977981;28;20081;-84
2023/06/15 10:26:11;;;;;;;4.30;2.33;;;23.00;57.10;;;;;;4978953;28;20022;-81
2023/06/15 10:28:44;;;;;;;3.97;2.20;;;23.00;57.30;;;;;;4995637;28;20030;-82
2023/06/15 10:31:30;;;;;;;3.33;2.25;;;23.10;57.70;;;;;;4995443;28;20022;-80
2023/06/15 10:34:13;;;;;;;4.95;2.35;;;23.00;55.80;;;;;;4978780;28;20113;-79
2023/06/15 10:37:12;;;;;;;3.13;2.00;;;23.00;56.80;;;;;;4980479;28;20034;-85
2023/06/15 10:39:44;;;;;;;5.60;2.17;;;23.10;56.70;;;;;;4965158;28;20030;-81
2023/06/15 10:42:13;;;;;;;3.45;2.00;;;23.20;57.00;;;;;;4978714;28;20073;-83
2023/06/15 10:44:39;;;;;;;2.40;2.03;;;23.30;56.20;;;;;;4976350;28;20053;-79
2023/06/15 10:47:06;;;;;;;3.83;2.25;;;23.40;56.60;;;;;;4978257;28;20498;-80
2023/06/15 10:49:32;;;;;;;3.30;2.13;;;23.50;56.80;;;;;;4995249;28;20117;-79
2023/06/15 10:51:58;;;;;;;4.75;1.83;;;23.60;56.20;;;;;;4978313;28;20514;-79
2023/06/15 10:54:26;;;;;;;2.55;1.90;;;23.60;55.90;;;;;;4988174;28;20399;-79
2023/06/15 10:56:57;;;;;;;3.25;2.47;;;23.60;56.00;;;;;;4980001;28;20024;-83
2023/06/15 10:59:47;;;;;;;3.30;2.17;;;23.80;55.60;;;;;;4989458;28;20037;-81
2023/06/15 11:02:28;;;;;;;3.80;2.05;;;23.80;54.90;;;;;;4987438;28;20042;-81
2023/06/15 11:05:00;;;;;;;2.33;2.13;;;23.80;53.50;;;;;;4995574;28;20387;-81
2023/06/15 11:07:30;;;;;;;2.90;2.00;;;23.70;54.00;;;;;;4978549;28;20045;-80
2023/06/15 11:09:56;;;;;;;2.45;2.10;;;23.80;54.70;;;;;;4978657;28;20392;-85
2023/06/15 11:12:40;;;;;;;2.40;2.08;;;23.90;55.10;;;;;;4980368;28;20037;-86
2023/06/15 11:15:08;;;;;;;2.70;2.05;;;24.00;54.20;;;;;;4980291;28;20479;-82
2023/06/15 11:18:00;;;;;;;2.72;2.20;;;24.10;53.60;;;;;;4979471;28;20030;-82
2023/06/15 11:20:44;;;;;;;2.47;2.15;;;24.10;54.00;;;;;;4995491;28;20023;-81
2023/06/15 11:23:19;;;;;;;2.40;2.20;;;24.30;54.30;;;;;;4985626;28;20124;-82
2023/06/15 11:25:46;;;;;;;3.85;1.70;;;24.30;53.50;;;;;;4994161;28;20045;-82
2023/06/15 11:28:21;;;;;;;3.28;2.30;;;24.30;53.40;;;;;;4992917;28;20018;-82
2023/06/15 11:30:47;;;;;;;4.20;2.10;;;24.30;53.90;;;;;;4995034;28;20072;-83
2023/06/15 11:33:14;;;;;;;3.00;2.20;;;24.20;54.60;;;;;;4978460;28;20387;-82
2023/06/15 11:35:40;;;;;;;4.57;2.20;;;24.10;54.40;;;;;;4977686;28;20060;-82
2023/06/15 11:38:10;;;;;;;3.03;2.15;;;24.10;53.50;;;;;;4982557;28;20100;-81
2023/06/15 11:40:35;;;;;;;4.72;2.63;;;24.00;53.20;;;;;;4994122;28;20054;-83
2023/06/15 11:43:02;;;;;;;3.45;2.25;;;24.00;53.30;;;;;;4989771;28;20026;-83
2023/06/15 11:45:28;;;;;;;3.25;2.00;;;24.00;53.50;;;;;;4993552;28;20026;-83
2023/06/15 11:47:54;;;;;;;3.47;2.13;;;24.10;54.00;;;;;;4977178;28;20026;-84
2023/06/15 11:50:20;;;;;;;2.83;2.10;;;24.30;53.80;;;;;;4976978;28;20043;-84
2023/06/15 11:52:46;;;;;;;2.85;2.20;;;24.40;53.20;;;;;;4994498;28;20030;-85
2023/06/15 11:55:15;;;;;;;5.65;2.65;;;24.50;52.60;;;;;;4994840;28;20039;-84
2023/06/15 11:57:44;;;;;;;3.08;2.30;;;24.50;52.90;;;;;;4991141;28;20065;-84
2023/06/15 12:00:12;;;;;;;3.00;2.25;;;24.60;52.10;;;;;;4985720;28;20061;-84
2023/06/15 12:02:42;;;;;;;6.45;2.35;;;24.60;52.40;;;;;;4961288;28;20030;-84
2023/06/15 12:05:11;;;;;;;3.78;2.45;;;24.70;52.10;;;;;;4994545;28;20042;-84
2023/06/15 12:07:38;;;;;;;3.58;2.25;;;24.70;51.80;;;;;;4993458;28;20128;-84
2023/06/15 12:10:06;;;;;;;3.55;2.33;;;24.80;52.60;;;;;;4994267;28;20464;-84
2023/06/15 12:12:32;;;;;;;4.00;2.20;;;24.90;52.30;;;;;;4994123;28;20065;-84
2023/06/15 12:15:00;;;;;;;6.78;2.22;;;24.90;51.90;;;;;;4977310;28;20383;-82
2023/06/15 12:17:31;;;;;;;2.28;2.08;;;25.00;51.50;;;;;;4976231;28;20018;-82
2023/06/15 12:20:09;;;;;;;2.65;2.08;;;25.10;50.60;;;;;;4994279;28;20022;-82
2023/06/15 12:22:36;;;;;;;4.70;2.10;;;25.20;51.40;;;;;;4992911;28;20084;-82
2023/06/15 12:25:03;;;;;;;3.47;1.83;;;25.30;51.10;;;;;;4980406;28;20474;-84
2023/06/15 12:27:29;;;;;;;4.97;1.85;;;25.40;50.30;;;;;;4974430;28;20039;-82
2023/06/15 12:29:55;;;;;;;3.35;1.85;;;25.40;50.10;;;;;;4975795;28;20093;-84
2023/06/15 12:32:25;;;;;;;2.88;1.83;;;25.40;50.90;;;;;;4976354;28;20084;-83
2023/06/15 12:34:51;;;;;;;3.53;2.63;;;25.40;51.90;;;;;;4992382;28;20030;-84
2023/06/15 12:37:17;;;;;;;2.42;2.22;;;25.50;52.20;;;;;;4977376;28;20027;-84
2023/06/15 12:39:44;;;;;;;2.85;2.28;;;25.50;52.20;;;;;;4989612;28;20031;-84
2023/06/15 12:42:10;;;;;;;3.13;2.25;;;25.50;51.60;;;;;;4993469;28;20022;-84
2023/06/15 12:44:36;;;;;;;5.22;2.40;;;25.60;51.90;;;;;;4987081;28;20486;-83
2023/06/15 12:47:02;;;;;;;4.32;2.30;;;25.60;51.10;;;;;;4979686;28;20030;-81
2023/06/15 12:49:28;;;;;;;4.28;2.28;;;25.60;50.60;;;;;;4991120;28;20034;-82